sensor_id;sensor_type;location;lat;lon;timestamp;temperature;humidity
584;HTU21D;27024;54.068;12.116;2022-11-15T00:00:54;5.10;118.99
584;HTU21D;27024;54.068;12.116;2022-11-15T00:03:24;5.04;118.99
584;HTU21D;27024;54.068;12.116;2022-11-15T00:05:51;4.98;118.99
584;HTU21D;27024;54.068;12.116;2022-11-15T00:08:18;5.06;118.99
584;HTU21D;27024;54.068;12.116;2022-11-15T00:10:55;4.97;118.99
584;HTU21D;27024;54.068;12.116;2022-11-15T00:13:22;5.00;118.99
584;HTU21D;27024;54.068;12.116;2022-11-15T00:15:49;5.04;118.99
584;HTU21D;27024;54.068;12.116;2022-11-15T00:18:17;5.02;118.99
584;HTU21D;27024;54.068;12.116;2022-11-15T00:20:44;4.98;118.99
584;HTU21D;27024;54.068;12.116;2022-11-15T00:23:11;5.04;118.99
584;HTU21D;27024;54.068;12.116;2022-11-15T00:25:38;5.03;118.99
584;HTU21D;27024;54.068;12.116;2022-11-15T00:28:05;5.00;118.99
584;HTU21D;27024;54.068;12.116;2022-11-15T00:30:31;5.02;118.99
584;HTU21D;27024;54.068;12.116;2022-11-15T00:33:05;4.96;118.93
584;HTU21D;27024;54.068;12.116;2022-11-15T00:35:33;4.97;118.88
584;HTU21D;27024;54.068;12.116;2022-11-15T00:38:01;4.86;118.92
584;HTU21D;27024;54.068;12.116;2022-11-15T00:40:28;4.87;118.99
584;HTU21D;27024;54.068;12.116;2022-11-15T00:42:55;4.79;118.98
584;HTU21D;27024;54.068;12.116;2022-11-15T00:45:22;4.71;118.95
584;HTU21D;27024;54.068;12.116;2022-11-15T00:47:49;4.73;118.99
584;HTU21D;27024;54.068;12.116;2022-11-15T00:50:16;4.71;118.99
584;HTU21D;27024;54.068;12.116;2022-11-15T00:52:44;4.74;118.99
584;HTU21D;27024;54.068;12.116;2022-11-15T00:55:14;4.75;118.87
584;HTU21D;27024;54.068;12.116;2022-11-15T00:57:41;4.66;118.68
584;HTU21D;27024;54.068;12.116;2022-11-15T01:00:09;4.65;118.90
584;HTU21D;27024;54.068;12.116;2022-11-15T01:02:36;4.62;118.90
584;HTU21D;27024;54.068;12.116;2022-11-15T01:05:03;4.63;118.82
584;HTU21D;27024;54.068;12.116;2022-11-15T01:07:30;4.52;118.99
584;HTU21D;27024;54.068;12.116;2022-11-15T01:09:57;4.58;118.99
584;HTU21D;27024;54.068;12.116;2022-11-15T01:12:24;4.61;118.99
584;HTU21D;27024;54.068;12.116;2022-11-15T01:14:51;4.57;118.99
584;HTU21D;27024;54.068;12.116;2022-11-15T01:17:17;4.52;118.99
584;HTU21D;27024;54.068;12.116;2022-11-15T01:19:44;4.58;118.99
584;HTU21D;27024;54.068;12.116;2022-11-15T01:22:11;4.53;118.99
584;HTU21D;27024;54.068;12.116;2022-11-15T01:24:38;4.56;118.99
584;HTU21D;27024;54.068;12.116;2022-11-15T01:27:05;4.57;118.99
584;HTU21D;27024;54.068;12.116;2022-11-15T01:29:33;4.59;118.99
584;HTU21D;27024;54.068;12.116;2022-11-15T01:32:00;4.64;118.99
584;HTU21D;27024;54.068;12.116;2022-11-15T01:34:26;4.56;118.99
584;HTU21D;27024;54.068;12.116;2022-11-15T01:36:53;4.59;118.99
584;HTU21D;27024;54.068;12.116;2022-11-15T01:39:20;4.54;118.99
584;HTU21D;27024;54.068;12.116;2022-11-15T01:41:47;4.60;118.99
584;HTU21D;27024;54.068;12.116;2022-11-15T01:44:48;4.49;118.99
584;HTU21D;27024;54.068;12.116;2022-11-15T01:47:39;4.57;118.99
584;HTU21D;27024;54.068;12.116;2022-11-15T01:50:11;4.60;118.99
584;HTU21D;27024;54.068;12.116;2022-11-15T01:52:39;4.63;118.99
584;HTU21D;27024;54.068;12.116;2022-11-15T01:55:18;4.64;118.99
584;HTU21D;27024;54.068;12.116;2022-11-15T01:57:49;4.58;118.99
584;HTU21D;27024;54.068;12.116;2022-11-15T02:00:17;4.64;118.99
584;HTU21D;27024;54.068;12.116;2022-11-15T02:02:44;4.71;118.99
584;HTU21D;27024;54.068;12.116;2022-11-15T02:05:11;4.62;118.99
584;HTU21D;27024;54.068;12.116;2022-11-15T02:07:38;4.60;118.99
584;HTU21D;27024;54.068;12.116;2022-11-15T02:10:13;4.65;118.99
584;HTU21D;27024;54.068;12.116;2022-11-15T02:12:43;4.68;118.99
584;HTU21D;27024;54.068;12.116;2022-11-15T02:15:11;4.65;118.99
584;HTU21D;27024;54.068;12.116;2022-11-15T02:18:02;4.54;118.99
584;HTU21D;27024;54.068;12.116;2022-11-15T02:20:41;4.62;118.99
584;HTU21D;27024;54.068;12.116;2022-11-15T02:31:13;4.54;118.99
584;HTU21D;27024;54.068;12.116;2022-11-15T02:34:04;4.54;118.99
584;HTU21D;27024;54.068;12.116;2022-11-15T02:36:43;4.47;118.99
584;HTU21D;27024;54.068;12.116;2022-11-15T02:39:49;4.47;118.99
584;HTU21D;27024;54.068;12.116;2022-11-15T02:42:21;4.44;118.99
584;HTU21D;27024;54.068;12.116;2022-11-15T02:45:11;4.41;118.99
584;HTU21D;27024;54.068;12.116;2022-11-15T02:47:45;4.34;118.99
584;HTU21D;27024;54.068;12.116;2022-11-15T02:50:17;4.34;118.99
584;HTU21D;27024;54.068;12.116;2022-11-15T02:52:45;4.37;118.99
584;HTU21D;27024;54.068;12.116;2022-11-15T02:55:33;4.29;118.99
584;HTU21D;27024;54.068;12.116;2022-11-15T03:01:21;4.37;118.99
584;HTU21D;27024;54.068;12.116;2022-11-15T03:04:41;4.35;118.99
584;HTU21D;27024;54.068;12.116;2022-11-15T03:06:49;4.37;118.99
584;HTU21D;27024;54.068;12.116;2022-11-15T03:12:14;4.35;118.82
584;HTU21D;27024;54.068;12.116;2022-11-15T03:14:54;4.32;118.67
584;HTU21D;27024;54.068;12.116;2022-11-15T03:17:28;4.24;118.81
584;HTU21D;27024;54.068;12.116;2022-11-15T03:19:59;4.31;118.98
584;HTU21D;27024;54.068;12.116;2022-11-15T03:22:29;4.23;118.92
584;HTU21D;27024;54.068;12.116;2022-11-15T03:25:04;4.29;118.99
584;HTU21D;27024;54.068;12.116;2022-11-15T03:27:36;4.10;118.99
584;HTU21D;27024;54.068;12.116;2022-11-15T03:30:07;4.07;118.99
584;HTU21D;27024;54.068;12.116;2022-11-15T03:32:38;4.04;118.99
584;HTU21D;27024;54.068;12.116;2022-11-15T03:35:10;4.05;118.99
584;HTU21D;27024;54.068;12.116;2022-11-15T03:40:42;4.05;118.99
584;HTU21D;27024;54.068;12.116;2022-11-15T03:45:45;4.04;118.99
584;HTU21D;27024;54.068;12.116;2022-11-15T03:48:22;4.04;118.99
584;HTU21D;27024;54.068;12.116;2022-11-15T03:50:51;4.09;118.99
584;HTU21D;27024;54.068;12.116;2022-11-15T03:53:18;4.08;118.99
584;HTU21D;27024;54.068;12.116;2022-11-15T03:55:45;4.10;118.99
584;HTU21D;27024;54.068;12.116;2022-11-15T03:58:11;4.00;118.99
584;HTU21D;27024;54.068;12.116;2022-11-15T04:00:38;3.98;118.99
584;HTU21D;27024;54.068;12.116;2022-11-15T04:03:05;4.02;118.99
584;HTU21D;27024;54.068;12.116;2022-11-15T04:05:32;4.03;118.99
584;HTU21D;27024;54.068;12.116;2022-11-15T04:07:58;4.00;118.99
584;HTU21D;27024;54.068;12.116;2022-11-15T04:10:25;4.01;118.99
584;HTU21D;27024;54.068;12.116;2022-11-15T04:12:52;4.03;118.99
584;HTU21D;27024;54.068;12.116;2022-11-15T04:15:21;3.97;118.99
584;HTU21D;27024;54.068;12.116;2022-11-15T04:17:50;3.93;118.99
584;HTU21D;27024;54.068;12.116;2022-11-15T04:23:10;3.94;118.99
584;HTU21D;27024;54.068;12.116;2022-11-15T04:25:59;3.87;118.99
584;HTU21D;27024;54.068;12.116;2022-11-15T04:28:26;3.80;118.99
584;HTU21D;27024;54.068;12.116;2022-11-15T04:30:53;3.83;118.99
584;HTU21D;27024;54.068;12.116;2022-11-15T04:33:20;3.86;118.99
584;HTU21D;27024;54.068;12.116;2022-11-15T04:35:47;3.89;118.99
584;HTU21D;27024;54.068;12.116;2022-11-15T04:38:35;3.91;118.99
584;HTU21D;27024;54.068;12.116;2022-11-15T04:41:02;3.86;118.99
584;HTU21D;27024;54.068;12.116;2022-11-15T04:43:29;3.80;118.99
584;HTU21D;27024;54.068;12.116;2022-11-15T04:45:57;3.82;118.99
584;HTU21D;27024;54.068;12.116;2022-11-15T04:48:23;3.68;118.99
584;HTU21D;27024;54.068;12.116;2022-11-15T04:50:50;3.71;118.99
584;HTU21D;27024;54.068;12.116;2022-11-15T04:53:17;3.65;118.99
584;HTU21D;27024;54.068;12.116;2022-11-15T04:55:46;3.58;118.99
584;HTU21D;27024;54.068;12.116;2022-11-15T04:58:13;3.48;118.99
584;HTU21D;27024;54.068;12.116;2022-11-15T05:00:40;3.49;118.99
584;HTU21D;27024;54.068;12.116;2022-11-15T05:03:09;3.45;118.99
584;HTU21D;27024;54.068;12.116;2022-11-15T05:05:54;3.42;118.99
584;HTU21D;27024;54.068;12.116;2022-11-15T05:08:21;3.49;118.99
584;HTU21D;27024;54.068;12.116;2022-11-15T05:10:48;3.53;118.99
584;HTU21D;27024;54.068;12.116;2022-11-15T05:13:14;3.57;118.99
584;HTU21D;27024;54.068;12.116;2022-11-15T05:15:41;3.47;118.99
584;HTU21D;27024;54.068;12.116;2022-11-15T05:18:08;3.42;118.99
584;HTU21D;27024;54.068;12.116;2022-11-15T05:20:35;3.55;118.99
584;HTU21D;27024;54.068;12.116;2022-11-15T05:23:01;3.57;118.99
584;HTU21D;27024;54.068;12.116;2022-11-15T05:25:28;3.60;118.99
584;HTU21D;27024;54.068;12.116;2022-11-15T05:27:55;3.59;118.99
584;HTU21D;27024;54.068;12.116;2022-11-15T05:30:22;3.59;118.99
584;HTU21D;27024;54.068;12.116;2022-11-15T05:32:49;3.59;118.99
584;HTU21D;27024;54.068;12.116;2022-11-15T05:35:30;3.57;118.99
584;HTU21D;27024;54.068;12.116;2022-11-15T05:37:58;3.54;118.99
584;HTU21D;27024;54.068;12.116;2022-11-15T05:40:25;3.48;118.99
584;HTU21D;27024;54.068;12.116;2022-11-15T05:42:52;3.49;118.99
584;HTU21D;27024;54.068;12.116;2022-11-15T05:45:19;3.54;118.99
584;HTU21D;27024;54.068;12.116;2022-11-15T05:47:54;3.53;118.99
584;HTU21D;27024;54.068;12.116;2022-11-15T05:50:21;3.52;118.99
584;HTU21D;27024;54.068;12.116;2022-11-15T05:52:48;3.54;118.99
584;HTU21D;27024;54.068;12.116;2022-11-15T05:55:15;3.58;118.99
584;HTU21D;27024;54.068;12.116;2022-11-15T05:57:42;3.63;118.99
584;HTU21D;27024;54.068;12.116;2022-11-15T06:00:09;3.56;118.99
584;HTU21D;27024;54.068;12.116;2022-11-15T06:02:36;3.56;118.99
584;HTU21D;27024;54.068;12.116;2022-11-15T06:05:03;3.59;118.99
584;HTU21D;27024;54.068;12.116;2022-11-15T06:07:30;3.58;118.99
584;HTU21D;27024;54.068;12.116;2022-11-15T06:09:57;3.61;118.99
584;HTU21D;27024;54.068;12.116;2022-11-15T06:12:24;3.61;118.99
584;HTU21D;27024;54.068;12.116;2022-11-15T06:14:50;3.57;118.99
584;HTU21D;27024;54.068;12.116;2022-11-15T06:17:17;3.62;118.99
584;HTU21D;27024;54.068;12.116;2022-11-15T06:19:44;3.65;118.99
584;HTU21D;27024;54.068;12.116;2022-11-15T06:22:11;3.61;118.99
584;HTU21D;27024;54.068;12.116;2022-11-15T06:24:37;3.64;118.99
584;HTU21D;27024;54.068;12.116;2022-11-15T06:27:04;3.59;118.99
584;HTU21D;27024;54.068;12.116;2022-11-15T06:29:31;3.60;118.99
584;HTU21D;27024;54.068;12.116;2022-11-15T06:31:58;3.69;118.99
584;HTU21D;27024;54.068;12.116;2022-11-15T06:34:24;3.64;118.99
584;HTU21D;27024;54.068;12.116;2022-11-15T06:36:51;3.68;118.99
584;HTU21D;27024;54.068;12.116;2022-11-15T06:39:18;3.73;118.99
584;HTU21D;27024;54.068;12.116;2022-11-15T06:41:45;3.71;118.99
584;HTU21D;27024;54.068;12.116;2022-11-15T06:44:11;3.68;118.99
584;HTU21D;27024;54.068;12.116;2022-11-15T06:46:38;3.73;118.99
584;HTU21D;27024;54.068;12.116;2022-11-15T06:49:05;3.74;118.99
584;HTU21D;27024;54.068;12.116;2022-11-15T06:51:35;3.83;118.99
584;HTU21D;27024;54.068;12.116;2022-11-15T06:54:02;3.84;118.99
584;HTU21D;27024;54.068;12.116;2022-11-15T06:56:29;3.95;118.99
584;HTU21D;27024;54.068;12.116;2022-11-15T06:58:56;3.99;118.99
584;HTU21D;27024;54.068;12.116;2022-11-15T07:01:23;4.26;118.99
584;HTU21D;27024;54.068;12.116;2022-11-15T07:03:49;4.26;118.99
584;HTU21D;27024;54.068;12.116;2022-11-15T07:06:16;4.26;118.99
584;HTU21D;27024;54.068;12.116;2022-11-15T07:08:43;4.32;118.99
584;HTU21D;27024;54.068;12.116;2022-11-15T07:11:09;4.39;118.99
584;HTU21D;27024;54.068;12.116;2022-11-15T07:13:36;4.42;118.99
584;HTU21D;27024;54.068;12.116;2022-11-15T07:16:09;4.45;118.99
584;HTU21D;27024;54.068;12.116;2022-11-15T07:18:38;4.53;118.99
584;HTU21D;27024;54.068;12.116;2022-11-15T07:21:07;4.52;118.99
584;HTU21D;27024;54.068;12.116;2022-11-15T07:23:36;4.62;118.99
584;HTU21D;27024;54.068;12.116;2022-11-15T07:26:03;4.79;118.99
584;HTU21D;27024;54.068;12.116;2022-11-15T07:28:31;4.78;118.99
584;HTU21D;27024;54.068;12.116;2022-11-15T07:30:58;4.80;118.99
584;HTU21D;27024;54.068;12.116;2022-11-15T07:33:24;4.77;118.99
584;HTU21D;27024;54.068;12.116;2022-11-15T07:35:51;4.92;118.99
584;HTU21D;27024;54.068;12.116;2022-11-15T07:38:18;4.93;118.99
584;HTU21D;27024;54.068;12.116;2022-11-15T07:40:56;4.95;118.99
584;HTU21D;27024;54.068;12.116;2022-11-15T07:43:23;5.03;118.99
584;HTU21D;27024;54.068;12.116;2022-11-15T07:45:49;5.09;118.99
584;HTU21D;27024;54.068;12.116;2022-11-15T07:48:24;5.20;118.99
584;HTU21D;27024;54.068;12.116;2022-11-15T07:50:50;5.08;118.99
584;HTU21D;27024;54.068;12.116;2022-11-15T07:53:17;5.20;118.99
584;HTU21D;27024;54.068;12.116;2022-11-15T07:55:44;5.26;118.99
584;HTU21D;27024;54.068;12.116;2022-11-15T07:58:11;5.35;118.99
584;HTU21D;27024;54.068;12.116;2022-11-15T08:00:38;5.35;118.99
584;HTU21D;27024;54.068;12.116;2022-11-15T08:03:13;5.35;118.99
584;HTU21D;27024;54.068;12.116;2022-11-15T08:05:41;5.42;118.99
584;HTU21D;27024;54.068;12.116;2022-11-15T08:08:10;5.54;118.99
584;HTU21D;27024;54.068;12.116;2022-11-15T08:10:37;5.65;118.99
584;HTU21D;27024;54.068;12.116;2022-11-15T08:13:08;5.57;118.99
584;HTU21D;27024;54.068;12.116;2022-11-15T08:15:36;5.75;118.99
584;HTU21D;27024;54.068;12.116;2022-11-15T08:18:15;5.69;118.99
584;HTU21D;27024;54.068;12.116;2022-11-15T08:20:42;5.68;118.99
584;HTU21D;27024;54.068;12.116;2022-11-15T08:23:11;5.82;118.99
584;HTU21D;27024;54.068;12.116;2022-11-15T08:25:39;5.85;118.99
584;HTU21D;27024;54.068;12.116;2022-11-15T08:28:07;5.93;118.99
584;HTU21D;27024;54.068;12.116;2022-11-15T08:30:36;6.00;118.99
584;HTU21D;27024;54.068;12.116;2022-11-15T08:33:04;6.05;118.99
584;HTU21D;27024;54.068;12.116;2022-11-15T08:35:31;6.09;118.94
584;HTU21D;27024;54.068;12.116;2022-11-15T08:37:58;6.05;118.99
584;HTU21D;27024;54.068;12.116;2022-11-15T08:40:24;6.16;118.99
584;HTU21D;27024;54.068;12.116;2022-11-15T08:42:53;6.20;118.91
584;HTU21D;27024;54.068;12.116;2022-11-15T08:45:20;6.24;118.83
584;HTU21D;27024;54.068;12.116;2022-11-15T08:47:47;6.33;118.76
584;HTU21D;27024;54.068;12.116;2022-11-15T08:50:20;6.33;118.66
584;HTU21D;27024;54.068;12.116;2022-11-15T08:52:46;6.34;118.73
584;HTU21D;27024;54.068;12.116;2022-11-15T08:55:14;6.27;118.77
584;HTU21D;27024;54.068;12.116;2022-11-15T08:57:43;6.34;118.76
584;HTU21D;27024;54.068;12.116;2022-11-15T09:00:11;6.34;118.62
584;HTU21D;27024;54.068;12.116;2022-11-15T09:02:39;6.39;118.84
584;HTU21D;27024;54.068;12.116;2022-11-15T09:05:07;6.46;118.64
584;HTU21D;27024;54.068;12.116;2022-11-15T09:07:34;6.37;118.60
584;HTU21D;27024;54.068;12.116;2022-11-15T09:10:00;6.46;118.70
584;HTU21D;27024;54.068;12.116;2022-11-15T09:12:27;6.50;118.34
584;HTU21D;27024;54.068;12.116;2022-11-15T09:14:54;6.49;118.29
584;HTU21D;27024;54.068;12.116;2022-11-15T09:17:21;6.54;118.20
584;HTU21D;27024;54.068;12.116;2022-11-15T09:19:50;6.56;117.94
584;HTU21D;27024;54.068;12.116;2022-11-15T09:22:17;6.76;117.95
584;HTU21D;27024;54.068;12.116;2022-11-15T09:24:44;6.70;117.51
584;HTU21D;27024;54.068;12.116;2022-11-15T09:27:11;6.73;117.82
584;HTU21D;27024;54.068;12.116;2022-11-15T09:29:39;6.72;117.60
584;HTU21D;27024;54.068;12.116;2022-11-15T09:32:06;6.71;117.67
584;HTU21D;27024;54.068;12.116;2022-11-15T09:34:33;6.78;117.61
584;HTU21D;27024;54.068;12.116;2022-11-15T09:37:00;6.86;117.57
584;HTU21D;27024;54.068;12.116;2022-11-15T09:39:27;6.91;117.51
584;HTU21D;27024;54.068;12.116;2022-11-15T09:42:27;6.89;117.01
584;HTU21D;27024;54.068;12.116;2022-11-15T09:50:15;7.09;116.41
584;HTU21D;27024;54.068;12.116;2022-11-15T09:52:44;7.04;116.74
584;HTU21D;27024;54.068;12.116;2022-11-15T09:55:14;7.03;116.70
584;HTU21D;27024;54.068;12.116;2022-11-15T09:57:57;7.12;116.70
584;HTU21D;27024;54.068;12.116;2022-11-15T10:03:14;7.28;116.43
584;HTU21D;27024;54.068;12.116;2022-11-15T10:05:49;7.29;116.34
584;HTU21D;27024;54.068;12.116;2022-11-15T10:11:09;7.46;116.72
584;HTU21D;27024;54.068;12.116;2022-11-15T10:14:01;7.48;116.77
584;HTU21D;27024;54.068;12.116;2022-11-15T10:17:06;7.45;116.88
584;HTU21D;27024;54.068;12.116;2022-11-15T10:25:17;7.74;116.27
584;HTU21D;27024;54.068;12.116;2022-11-15T10:27:50;7.76;115.99
584;HTU21D;27024;54.068;12.116;2022-11-15T10:30:19;7.96;115.75
584;HTU21D;27024;54.068;12.116;2022-11-15T10:32:46;8.02;115.41
584;HTU21D;27024;54.068;12.116;2022-11-15T10:35:20;8.08;115.46
584;HTU21D;27024;54.068;12.116;2022-11-15T10:37:47;8.11;115.10
584;HTU21D;27024;54.068;12.116;2022-11-15T10:40:21;8.59;113.44
584;HTU21D;27024;54.068;12.116;2022-11-15T10:45:33;8.62;112.55
584;HTU21D;27024;54.068;12.116;2022-11-15T10:50:44;8.74;111.43
584;HTU21D;27024;54.068;12.116;2022-11-15T10:53:33;8.82;112.02
584;HTU21D;27024;54.068;12.116;2022-11-15T10:56:07;8.85;112.20
584;HTU21D;27024;54.068;12.116;2022-11-15T10:58:45;8.78;111.02
584;HTU21D;27024;54.068;12.116;2022-11-15T11:01:25;8.86;111.75
584;HTU21D;27024;54.068;12.116;2022-11-15T11:04:08;8.90;111.53
584;HTU21D;27024;54.068;12.116;2022-11-15T11:06:58;9.03;110.57
584;HTU21D;27024;54.068;12.116;2022-11-15T11:09:32;8.86;111.05
584;HTU21D;27024;54.068;12.116;2022-11-15T11:12:00;8.82;111.02
584;HTU21D;27024;54.068;12.116;2022-11-15T11:14:35;9.04;110.24
584;HTU21D;27024;54.068;12.116;2022-11-15T11:20:10;9.34;110.32
584;HTU21D;27024;54.068;12.116;2022-11-15T11:34:10;9.42;109.24
584;HTU21D;27024;54.068;12.116;2022-11-15T11:36:41;9.40;109.05
584;HTU21D;27024;54.068;12.116;2022-11-15T11:45:00;9.22;109.59
584;HTU21D;27024;54.068;12.116;2022-11-15T11:47:40;9.24;110.17
584;HTU21D;27024;54.068;12.116;2022-11-15T11:50:14;9.33;109.97
584;HTU21D;27024;54.068;12.116;2022-11-15T11:52:58;9.33;109.70
584;HTU21D;27024;54.068;12.116;2022-11-15T11:55:37;9.10;110.71
584;HTU21D;27024;54.068;12.116;2022-11-15T11:58:27;9.18;110.66
584;HTU21D;27024;54.068;12.116;2022-11-15T12:01:16;9.24;110.65
584;HTU21D;27024;54.068;12.116;2022-11-15T12:11:50;9.30;110.74
584;HTU21D;27024;54.068;12.116;2022-11-15T12:16:53;9.36;110.79
584;HTU21D;27024;54.068;12.116;2022-11-15T12:19:20;9.09;111.78
584;HTU21D;27024;54.068;12.116;2022-11-15T12:21:53;9.12;111.46
584;HTU21D;27024;54.068;12.116;2022-11-15T12:24:28;9.06;111.80
584;HTU21D;27024;54.068;12.116;2022-11-15T12:29:54;9.09;112.63
584;HTU21D;27024;54.068;12.116;2022-11-15T12:32:35;9.05;112.84
584;HTU21D;27024;54.068;12.116;2022-11-15T12:35:05;9.07;112.48
584;HTU21D;27024;54.068;12.116;2022-11-15T12:37:34;9.10;112.23
584;HTU21D;27024;54.068;12.116;2022-11-15T12:40:20;9.16;112.19
584;HTU21D;27024;54.068;12.116;2022-11-15T12:45:36;9.18;112.03
584;HTU21D;27024;54.068;12.116;2022-11-15T12:50:53;9.08;111.49
584;HTU21D;27024;54.068;12.116;2022-11-15T13:12:00;9.96;107.63
584;HTU21D;27024;54.068;12.116;2022-11-15T13:19:47;9.99;107.95
584;HTU21D;27024;54.068;12.116;2022-11-15T13:22:14;10.08;107.30
584;HTU21D;27024;54.068;12.116;2022-11-15T13:25:00;10.01;107.37
584;HTU21D;27024;54.068;12.116;2022-11-15T13:27:28;9.81;107.99
584;HTU21D;27024;54.068;12.116;2022-11-15T13:29:55;9.93;107.79
584;HTU21D;27024;54.068;12.116;2022-11-15T13:32:22;9.84;107.94
584;HTU21D;27024;54.068;12.116;2022-11-15T13:34:50;9.90;108.17
584;HTU21D;27024;54.068;12.116;2022-11-15T13:39:49;9.64;108.81
584;HTU21D;27024;54.068;12.116;2022-11-15T13:42:18;9.52;108.72
584;HTU21D;27024;54.068;12.116;2022-11-15T13:44:57;9.66;108.36
584;HTU21D;27024;54.068;12.116;2022-11-15T13:47:28;9.72;108.11
584;HTU21D;27024;54.068;12.116;2022-11-15T13:49:59;9.59;108.93
584;HTU21D;27024;54.068;12.116;2022-11-15T13:52:33;9.59;108.58
584;HTU21D;27024;54.068;12.116;2022-11-15T13:55:05;9.53;108.88
584;HTU21D;27024;54.068;12.116;2022-11-15T13:57:44;9.51;109.01
584;HTU21D;27024;54.068;12.116;2022-11-15T14:00:33;9.48;109.30
584;HTU21D;27024;54.068;12.116;2022-11-15T14:05:42;8.98;111.24
584;HTU21D;27024;54.068;12.116;2022-11-15T14:10:41;8.85;111.88
584;HTU21D;27024;54.068;12.116;2022-11-15T14:13:28;8.72;112.69
584;HTU21D;27024;54.068;12.116;2022-11-15T14:16:19;8.51;113.64
584;HTU21D;27024;54.068;12.116;2022-11-15T14:18:50;8.47;114.28
584;HTU21D;27024;54.068;12.116;2022-11-15T14:21:18;8.33;114.54
584;HTU21D;27024;54.068;12.116;2022-11-15T14:23:45;8.19;115.91
584;HTU21D;27024;54.068;12.116;2022-11-15T14:28:56;8.13;116.48
584;HTU21D;27024;54.068;12.116;2022-11-15T14:31:22;8.11;116.42
584;HTU21D;27024;54.068;12.116;2022-11-15T14:33:49;8.06;116.81
584;HTU21D;27024;54.068;12.116;2022-11-15T14:36:17;8.05;116.99
584;HTU21D;27024;54.068;12.116;2022-11-15T14:38:45;8.00;117.55
584;HTU21D;27024;54.068;12.116;2022-11-15T14:41:25;7.89;117.91
584;HTU21D;27024;54.068;12.116;2022-11-15T14:43:58;7.89;118.35
584;HTU21D;27024;54.068;12.116;2022-11-15T14:46:25;7.77;118.57
584;HTU21D;27024;54.068;12.116;2022-11-15T14:48:52;7.72;118.86
584;HTU21D;27024;54.068;12.116;2022-11-15T14:51:19;7.64;118.99
584;HTU21D;27024;54.068;12.116;2022-11-15T14:53:48;7.70;118.99
584;HTU21D;27024;54.068;12.116;2022-11-15T14:56:15;7.70;118.99
584;HTU21D;27024;54.068;12.116;2022-11-15T14:58:45;7.64;118.99
584;HTU21D;27024;54.068;12.116;2022-11-15T15:01:24;7.69;118.99
584;HTU21D;27024;54.068;12.116;2022-11-15T15:03:52;7.72;118.99
584;HTU21D;27024;54.068;12.116;2022-11-15T15:06:23;7.68;118.82
584;HTU21D;27024;54.068;12.116;2022-11-15T15:08:49;7.64;118.99
584;HTU21D;27024;54.068;12.116;2022-11-15T15:11:23;7.67;118.99
584;HTU21D;27024;54.068;12.116;2022-11-15T15:13:50;7.71;118.99
584;HTU21D;27024;54.068;12.116;2022-11-15T15:16:19;7.69;118.98
584;HTU21D;27024;54.068;12.116;2022-11-15T15:18:46;7.49;118.99
584;HTU21D;27024;54.068;12.116;2022-11-15T15:21:26;7.55;118.99
584;HTU21D;27024;54.068;12.116;2022-11-15T15:24:03;7.57;118.99
584;HTU21D;27024;54.068;12.116;2022-11-15T15:26:30;7.48;118.99
584;HTU21D;27024;54.068;12.116;2022-11-15T15:29:00;7.50;118.99
584;HTU21D;27024;54.068;12.116;2022-11-15T15:31:26;7.39;118.99
584;HTU21D;27024;54.068;12.116;2022-11-15T15:33:53;7.34;118.99
584;HTU21D;27024;54.068;12.116;2022-11-15T15:36:20;7.28;118.99
584;HTU21D;27024;54.068;12.116;2022-11-15T15:38:47;7.33;118.99
584;HTU21D;27024;54.068;12.116;2022-11-15T15:41:14;7.38;118.99
584;HTU21D;27024;54.068;12.116;2022-11-15T15:43:42;7.43;118.99
584;HTU21D;27024;54.068;12.116;2022-11-15T15:46:14;7.37;118.99
584;HTU21D;27024;54.068;12.116;2022-11-15T15:48:41;7.35;118.99
584;HTU21D;27024;54.068;12.116;2022-11-15T15:51:08;7.33;118.99
584;HTU21D;27024;54.068;12.116;2022-11-15T15:53:44;7.30;118.99
584;HTU21D;27024;54.068;12.116;2022-11-15T15:56:10;7.27;118.99
584;HTU21D;27024;54.068;12.116;2022-11-15T15:58:37;7.43;118.99
584;HTU21D;27024;54.068;12.116;2022-11-15T16:01:04;7.34;118.99
584;HTU21D;27024;54.068;12.116;2022-11-15T16:03:31;7.35;118.99
584;HTU21D;27024;54.068;12.116;2022-11-15T16:05:58;7.28;118.99
584;HTU21D;27024;54.068;12.116;2022-11-15T16:08:25;7.35;118.99
584;HTU21D;27024;54.068;12.116;2022-11-15T16:11:16;7.20;118.99
584;HTU21D;27024;54.068;12.116;2022-11-15T16:13:43;7.18;118.99
584;HTU21D;27024;54.068;12.116;2022-11-15T16:16:12;7.09;118.99
584;HTU21D;27024;54.068;12.116;2022-11-15T16:18:40;6.99;118.99
584;HTU21D;27024;54.068;12.116;2022-11-15T16:21:07;7.01;118.99
584;HTU21D;27024;54.068;12.116;2022-11-15T16:23:35;7.03;118.99
584;HTU21D;27024;54.068;12.116;2022-11-15T16:26:02;7.01;118.99
584;HTU21D;27024;54.068;12.116;2022-11-15T16:28:32;6.97;118.99
584;HTU21D;27024;54.068;12.116;2022-11-15T16:31:09;6.96;118.99
584;HTU21D;27024;54.068;12.116;2022-11-15T16:33:37;6.94;118.99
584;HTU21D;27024;54.068;12.116;2022-11-15T16:36:06;6.98;118.99
584;HTU21D;27024;54.068;12.116;2022-11-15T16:38:37;6.97;118.99
584;HTU21D;27024;54.068;12.116;2022-11-15T16:41:05;7.00;118.99
584;HTU21D;27024;54.068;12.116;2022-11-15T16:43:32;7.04;118.99
584;HTU21D;27024;54.068;12.116;2022-11-15T16:46:23;7.07;118.99
584;HTU21D;27024;54.068;12.116;2022-11-15T16:48:51;7.12;118.99
584;HTU21D;27024;54.068;12.116;2022-11-15T16:51:19;7.08;118.99
584;HTU21D;27024;54.068;12.116;2022-11-15T16:53:46;7.10;118.99
584;HTU21D;27024;54.068;12.116;2022-11-15T16:56:25;7.13;118.99
584;HTU21D;27024;54.068;12.116;2022-11-15T16:58:56;7.08;118.99
584;HTU21D;27024;54.068;12.116;2022-11-15T17:01:28;7.12;118.99
584;HTU21D;27024;54.068;12.116;2022-11-15T17:03:56;7.07;118.99
584;HTU21D;27024;54.068;12.116;2022-11-15T17:06:24;7.10;118.99
584;HTU21D;27024;54.068;12.116;2022-11-15T17:08:51;7.09;118.99
584;HTU21D;27024;54.068;12.116;2022-11-15T17:11:21;6.98;118.99
584;HTU21D;27024;54.068;12.116;2022-11-15T17:13:48;7.07;118.99
584;HTU21D;27024;54.068;12.116;2022-11-15T17:16:17;7.05;118.99
584;HTU21D;27024;54.068;12.116;2022-11-15T17:18:43;7.02;118.99
584;HTU21D;27024;54.068;12.116;2022-11-15T17:21:14;6.97;118.99
584;HTU21D;27024;54.068;12.116;2022-11-15T17:23:41;6.98;118.99
584;HTU21D;27024;54.068;12.116;2022-11-15T17:26:10;7.04;118.99
584;HTU21D;27024;54.068;12.116;2022-11-15T17:28:55;7.08;118.99
584;HTU21D;27024;54.068;12.116;2022-11-15T17:31:27;7.08;118.99
584;HTU21D;27024;54.068;12.116;2022-11-15T17:33:56;7.12;118.99
584;HTU21D;27024;54.068;12.116;2022-11-15T17:36:22;7.11;118.99
584;HTU21D;27024;54.068;12.116;2022-11-15T17:38:49;7.10;118.99
584;HTU21D;27024;54.068;12.116;2022-11-15T17:41:25;7.15;118.99
584;HTU21D;27024;54.068;12.116;2022-11-15T17:43:52;7.19;118.99
584;HTU21D;27024;54.068;12.116;2022-11-15T17:46:19;7.15;118.99
584;HTU21D;27024;54.068;12.116;2022-11-15T17:48:47;7.12;118.99